Nearby METAR Reports

 

KHFD - Hartford/Brainar, Connecticut, USA
Distance from station: ESE 5mi, 8km
Updated: Fri, 15-Oct-2021 3:53pm EDT
Few Clouds
Few Clouds
 Wind from S
Wind: S 6 mph , 9 km/h
Temperature: 77°F , 25°C
Dew Point: 61°F , 16°C
Humidity: 57%
Barometer: 29.87 inHg , 1011.5 hPa
Clouds: Few Clouds
Visibility: 10 miles , 16 km
Cloud details: Few Clouds 7000 ft
2021/10/15 19:53 KHFD 151953Z 17005KT 10SM FEW070 25/16 A2987 RMK AO2 SLP115 T02500161
KBDL - Windsor Locks, Connecticut, USA
Distance from station: NNE 12mi, 20km
Updated: Fri, 15-Oct-2021 3:51pm EDT
Mostly cloudy
Mostly cloudy
 Wind from SSW
Wind: SSW 7 mph , 11 km/h
Temperature: 79°F , 26°C
Dew Point: 61°F , 16°C
Humidity: 54%
Barometer: 29.87 inHg , 1011.5 hPa
Clouds: Mostly cloudy
Visibility: 10 miles , 16 km
Cloud details: Few Clouds 5500 ft
Partly cloudy 9000 ft
Mostly cloudy 15000 ft
2021/10/15 19:51 KBDL 151951Z 20006KT 10SM FEW055 SCT090 BKN150 26/16 A2987 RMK AO2 SLP115 T02560161
 
KMMK - Meriden, Connecticut, USA
Distance from station: SSW 18mi, 28km
Updated: Fri, 15-Oct-2021 3:53pm EDT
Few Clouds
Few Clouds
 Wind from S
Wind: S 9 mph , 15 km/h
Temperature: 77°F , 25°C
Dew Point: 57°F , 14°C
Humidity: 51%
Barometer: 29.88 inHg , 1011.9 hPa
Clouds: Few Clouds
Visibility: 10 miles , 16 km
Cloud details: Few Clouds 7000 ft
2021/10/15 19:53 KMMK 151953Z AUTO 18008KT 10SM FEW070 25/14 A2988 RMK AO2 SLP117 T02500144 $
KBAF - Westfield, Massachusetts, USA
Distance from station: N 28mi, 45km
Updated: Fri, 15-Oct-2021 3:53pm EDT
Mostly cloudy
Mostly cloudy
 Wind from SE
Wind: SE 5 mph , 7 km/h
Temperature: 75°F , 24°C
Dew Point: 63°F , 17°C
Humidity: 65%
Barometer: 29.87 inHg , 1011.5 hPa
Clouds: Mostly cloudy
Visibility: 10 miles , 16 km
Cloud details: Mostly cloudy 5500 ft
2021/10/15 19:53 KBAF 151953Z 13004KT 10SM BKN055 24/17 A2987 RMK AO2 SLP114 T02390167
 
KIJD - Willimantic, Connecticut, USA
Distance from station: E 29mi, 46km
Updated: Fri, 15-Oct-2021 3:52pm EDT
Overcast
Overcast
 Wind from S
Wind: S 8 mph , 13 km/h
Temperature: 75°F , 24°C
Dew Point: 61°F , 16°C
Humidity: 61%
Barometer: 29.89 inHg , 1012.2 hPa
Clouds: Overcast
Visibility: 10 miles , 16 km
Cloud details: Few Clouds 4200 ft
Mostly cloudy 5000 ft
Overcast 6500 ft
2021/10/15 19:52 KIJD 151952Z AUTO 18007KT 10SM FEW042 BKN050 OVC065 24/16 A2989 RMK AO2 SLP120 T02440161
KOXC - Oxford/Waterbury, Connecticut, USA
Distance from station: SW 29mi, 46km
Updated: Fri, 15-Oct-2021 3:51pm EDT
Clear
Clear
 Wind from S
Wind: S 8 mph , 13 km/h
Temperature: 75°F , 24°C
Dew Point: 63°F , 17°C
Humidity: 65%
Barometer: 29.91 inHg , 1012.9 hPa
Clouds: Clear
Visibility: 10 miles , 16 km
2021/10/15 19:51 KOXC 151951Z 17007KT 10SM CLR 24/17 A2991 RMK AO2 SLP135 T02390172
 
KSNC - Chester, Connecticut, USA
Distance from station: SSE 29mi, 47km
Updated: Fri, 15-Oct-2021 4:35pm EDT
Clear
Clear
 Wind from varies
Wind: varies 6 mph , 9 km/h
Temperature: 73°F , 23°C
Dew Point: 64°F , 18°C
Humidity: 74%
Barometer: 29.91 inHg , 1012.9 hPa
Clouds: Clear
Visibility: 10 miles , 16 km
2021/10/15 20:35 KSNC 152035Z AUTO VRB05KT 10SM CLR 23/18 A2991 RMK AO2
KCEF - Chicopee/Westove, Massachusetts, USA
Distance from station: NNE 32mi, 52km
Updated: Fri, 15-Oct-2021 3:56pm EDT
Mostly cloudy
Mostly cloudy
 Wind from E
Wind: E 5 mph , 7 km/h
Temperature: 73°F , 23°C
Dew Point: 63°F , 17°C
Humidity: 69%
Barometer: 29.87 inHg , 1011.5 hPa
Clouds: Mostly cloudy
Visibility: 10 miles , 16 km
Cloud details: Mostly cloudy 5000 ft
Mostly cloudy 14000 ft
2021/10/15 19:56 KCEF 151956Z 09004KT 10SM BKN050 BKN140 23/17 A2987 RMK AO2A SLP120 T02280172
 
KHVN - New Haven/Tweed, Connecticut, USA
Distance from station: S 35mi, 56km
Updated: Fri, 15-Oct-2021 3:53pm EDT
Clear
Clear
 Wind from SE
Wind: SE 7 mph , 11 km/h
Temperature: 75°F , 24°C
Dew Point: 66°F , 19°C
Humidity: 74%
Barometer: 29.89 inHg , 1012.2 hPa
Clouds: Clear
Visibility: 10 miles , 16 km
2021/10/15 19:53 KHVN 151953Z 13006KT 10SM CLR 24/19 A2989 RMK AO2 SLP122 T02440189 $
KBDR - Bridgeport, Connecticut, USA
Distance from station: SSW 46mi, 74km
Updated: Fri, 15-Oct-2021 3:52pm EDT
Few Clouds
Few Clouds
 Wind from SE
Wind: SE 8 mph , 13 km/h
Temperature: 73°F , 23°C
Dew Point: 63°F , 17°C
Humidity: 69%
Barometer: 29.88 inHg , 1011.9 hPa
Clouds: Few Clouds
Visibility: 10 miles , 16 km
Cloud details: Few Clouds 6000 ft
2021/10/15 19:52 KBDR 151952Z 14007KT 10SM FEW060 23/17 A2988 RMK AO2 SLP120 T02330172 $
 
KGON - Groton/New Londo, Connecticut, USA
Distance from station: SE 46mi, 75km
Updated: Fri, 15-Oct-2021 3:56pm EDT
Clear
Clear
 Wind from SSE
Wind: SSE 12 mph , 19 km/h
Temperature: 70°F , 21°C
Dew Point: 63°F , 17°C
Humidity: 78%
Barometer: 29.90 inHg , 1012.5 hPa
Clouds: Clear
Visibility: 10 miles , 16 km
2021/10/15 19:56 KGON 151956Z 16010KT 10SM CLR 21/17 A2990 RMK AO2 SLP126 T02110167 $
KDXR - Danbury, Connecticut, USA
Distance from station: SW 47mi, 76km
Updated: Fri, 15-Oct-2021 3:53pm EDT
Clear
Clear
 Wind from WSW
Wind: WSW 8 mph , 13 km/h
Temperature: 79°F , 26°C
Dew Point: 63°F , 17°C
Humidity: 58%
Barometer: 29.90 inHg , 1012.5 hPa
Clouds: Clear
Visibility: 10 miles , 16 km
2021/10/15 19:53 KDXR 151953Z 24007KT 10SM CLR 26/17 A2990 RMK AO2 SLP121 T02560167 $
 
KPSF - Pittsfield, Massachusetts, USA
Distance from station: NNW 54mi, 87km
Updated: Fri, 15-Oct-2021 4:09pm EDT
Mostly cloudy
Mostly cloudy
 Wind from varies
Wind: varies 3 mph , 6 km/h
Temperature: 73°F , 23°C
Dew Point: 61°F , 16°C
Humidity: 65%
Barometer: 29.88 inHg , 1011.9 hPa
Clouds: Mostly cloudy
Visibility: 10 miles , 16 km
Cloud details: Mostly cloudy 2800 ft
2021/10/15 20:09 KPSF 152009Z AUTO VRB03KT 10SM BKN028 23/16 A2988 RMK AO2 T02280161
KWST - Westerly, Rhode Island, USA
Distance from station: ESE 56mi, 91km
Updated: Fri, 15-Oct-2021 4:39pm EDT
Few Clouds
Few Clouds
 Wind from S
Wind: S 9 mph , 15 km/h
Temperature: 70°F , 21°C
Dew Point: 64°F , 18°C
Humidity: 83%
Barometer: 29.92 inHg , 1013.2 hPa
Clouds: Few Clouds
Visibility: 10 miles , 16 km
Cloud details: Few Clouds 900 ft
2021/10/15 20:39 KWST 152039Z AUTO 17008KT 10SM FEW009 21/18 A2992 RMK AO2 T02060183
 
KORH - Worcester, Massachusetts, USA
Distance from station: NE 57mi, 92km
Updated: Fri, 15-Oct-2021 3:54pm EDT
Mostly cloudy
Mostly cloudy
 Wind from WSW
Wind: WSW 8 mph , 13 km/h
Temperature: 73°F , 23°C
Dew Point: 59°F , 15°C
Humidity: 61%
Barometer: 29.91 inHg , 1012.9 hPa
Clouds: Mostly cloudy
Visibility: 10 miles , 16 km
Cloud details: Mostly cloudy 6000 ft
Mostly cloudy 12000 ft
2021/10/15 19:54 KORH 151954Z 25007KT 10SM BKN060 BKN120 23/15 A2991 RMK AO2 SLP125 T02280150
KPOU - Poughkeepsie, New York, USA
Distance from station: W 60mi, 96km
Updated: Fri, 15-Oct-2021 3:53pm EDT
Clear
Clear
 Wind from varies
Wind: varies 5 mph , 7 km/h
Temperature: 79°F , 26°C
Dew Point: 64°F , 18°C
Humidity: 61%
Barometer: 29.86 inHg , 1011.2 hPa
Clouds: Clear
Visibility: 10 miles , 16 km
2021/10/15 19:53 KPOU 151953Z VRB04KT 10SM CLR 26/18 A2986 RMK AO2 SLP106 T02560183
 
KORE - Orange, Massachusetts, USA
Distance from station: NNE 60mi, 97km
Updated: Fri, 15-Oct-2021 3:52pm EDT
Mostly cloudy
Mostly cloudy
 Wind from SSW
Wind: SSW 7 mph , 11 km/h
Temperature: 72°F , 22°C
Dew Point: 61°F , 16°C
Humidity: 69%
Barometer: 29.90 inHg , 1012.5 hPa
Clouds: Mostly cloudy
Visibility: 10 miles , 16 km
Cloud details: Mostly cloudy 5000 ft
Mostly cloudy 11000 ft
2021/10/15 19:52 KORE 151952Z AUTO 20006KT 10SM BKN050 BKN110 22/16 A2990 RMK AO2 SLP124 T02220156
KHTO - East Hampton, New York, USA
Distance from station: SSE 62mi, 99km
Updated: Fri, 15-Oct-2021 4:35pm EDT
Clear
Clear
 Wind from S
Wind: S 8 mph , 13 km/h
Temperature: 70°F , 21°C
Dew Point: 64°F , 18°C
Humidity: 83%
Barometer: 29.91 inHg , 1012.9 hPa
Clouds: Clear
Visibility: 10 miles , 16 km
2021/10/15 20:35 KHTO 152035Z AUTO 18007KT 10SM CLR 21/18 A2991 RMK AO2 T02100178
 
KFOK - Westhampton Beac, New York, USA
Distance from station: S 63mi, 102km
Updated: Fri, 15-Oct-2021 3:53pm EDT
Clear
Clear
 Wind from SSE
Wind: SSE 7 mph , 11 km/h
Temperature: 72°F , 22°C
Dew Point: 64°F , 18°C
Humidity: 78%
Barometer: 29.92 inHg , 1013.2 hPa
Clouds: Clear
Visibility: 10 miles , 16 km
2021/10/15 19:53 KFOK 151953Z 16006KT 10SM CLR 22/18 A2992 RMK AO2 SLP130 T02170183 $
KMTP - Montauk, New York, USA
Distance from station: SE 64mi, 104km
Updated: Fri, 15-Oct-2021 3:54pm EDT

 Wind from varies
Wind: varies 3 mph , 6 km/h
Temperature: 72°F , 22°C
Dew Point: 64°F , 18°C
Humidity: 78%
Barometer: 29.93 inHg , 1013.5 hPa
2021/10/15 19:54 KMTP 151954Z AUTO VRB03KT 22/18 A2993 RMK AO1 SLP133 T02170183